createdAt,value
2019-05-21T00:05:49.565Z,100386.45
2019-05-21T00:11:55.348Z,100390.19
2019-05-21T00:18:01.160Z,100392.86
2019-05-21T00:24:07.161Z,100384.54
2019-05-21T00:31:07.027Z,100368.98
2019-05-21T00:38:06.608Z,100372.15
2019-05-21T00:44:12.391Z,100364.99
2019-05-21T00:50:19.419Z,100360.85
2019-05-21T00:56:25.335Z,100347.69
2019-05-21T01:02:31.295Z,100353.73
2019-05-21T01:08:37.105Z,100350.20
2019-05-21T01:14:42.877Z,100347.34
2019-05-21T01:20:48.646Z,100352.53
2019-05-21T01:26:54.397Z,100361.14
2019-05-21T01:33:00.173Z,100360.36
2019-05-21T01:39:07.304Z,100363.38
2019-05-21T01:45:13.530Z,100361.82
2019-05-21T01:51:20.242Z,100354.05
2019-05-21T01:57:25.964Z,100359.47
2019-05-21T02:03:31.706Z,100347.48
2019-05-21T02:09:56.305Z,100345.67
2019-05-21T02:16:02.566Z,100357.09
2019-05-21T02:22:08.472Z,100352.98
2019-05-21T02:28:14.458Z,100354.09
2019-05-21T02:34:20.266Z,100359.13
2019-05-21T02:40:26.830Z,100368.63
2019-05-21T02:46:33.096Z,100367.57
2019-05-21T02:52:39.013Z,100377.14
2019-05-21T02:58:44.766Z,100370.55
2019-05-21T03:04:50.510Z,100387.73
2019-05-21T03:10:56.510Z,100395.34
2019-05-21T03:17:02.270Z,100393.45
2019-05-21T03:23:08.291Z,100394.70
2019-05-21T03:29:14.318Z,100404.94
2019-05-21T03:35:20.242Z,100405.42
2019-05-21T03:41:26.441Z,100411.02
2019-05-21T03:47:32.158Z,100404.05
2019-05-21T03:53:38.858Z,100413.02
2019-05-21T03:59:44.750Z,100421.41
2019-05-21T04:05:50.759Z,100418.28
2019-05-21T04:11:56.543Z,100422.73
2019-05-21T04:18:07.885Z,100418.77
2019-05-21T04:24:15.887Z,100419.75
2019-05-21T04:30:21.633Z,100421.45
2019-05-21T04:36:27.628Z,100424.06
2019-05-21T04:42:33.543Z,100409.98
2019-05-21T04:48:39.475Z,100407.73
2019-05-21T04:54:45.495Z,100402.05
2019-05-21T05:00:51.232Z,100416.04
2019-05-21T05:06:57.037Z,100432.00
2019-05-21T05:13:02.811Z,100436.81
2019-05-21T05:19:08.550Z,100434.16
2019-05-21T05:25:15.421Z,100432.89
2019-05-21T05:31:21.552Z,100457.63
2019-05-21T05:37:42.564Z,100467.86
2019-05-21T05:43:35.268Z,100455.92
2019-05-21T05:49:45.148Z,100473.92
2019-05-21T05:55:50.886Z,100469.45
2019-05-21T06:01:56.706Z,100475.67
2019-05-21T06:08:02.763Z,100472.58
2019-05-21T06:14:08.949Z,100476.16
2019-05-21T06:20:15.681Z,100477.02
2019-05-21T06:26:21.797Z,100489.44
2019-05-21T06:32:27.765Z,100484.68
2019-05-21T06:38:33.790Z,100504.34
2019-05-21T06:44:41.445Z,100503.42
2019-05-21T06:50:47.192Z,100504.98
2019-05-21T06:56:53.005Z,100516.08
2019-05-21T07:02:58.843Z,100525.06
2019-05-21T07:09:05.886Z,100542.45
2019-05-21T07:15:12.167Z,100543.00
2019-05-21T07:21:18.848Z,100542.86
2019-05-21T07:27:24.755Z,100557.84
2019-05-21T07:33:30.531Z,100561.37
2019-05-21T07:39:37.182Z,100571.91
2019-05-21T07:45:43.035Z,100575.72
2019-05-21T07:51:49.344Z,100570.41
2019-05-21T07:57:55.215Z,100578.44
2019-05-21T08:04:01.255Z,100585.17
2019-05-21T08:10:08.536Z,100587.34
2019-05-21T08:16:14.557Z,100596.42
2019-05-21T08:22:20.414Z,100599.14
2019-05-21T08:28:26.204Z,100625.83
2019-05-21T08:34:32.015Z,100630.91
2019-05-21T08:40:39.477Z,100634.34
2019-05-21T08:46:45.620Z,100627.88
2019-05-21T08:52:51.776Z,100631.59
2019-05-21T08:58:57.676Z,100638.98
2019-05-21T09:05:03.568Z,100644.83
2019-05-21T09:11:09.815Z,100659.39
2019-05-21T09:17:15.561Z,100667.34
2019-05-21T09:23:21.372Z,100664.14
2019-05-21T09:29:27.165Z,100670.12
2019-05-21T09:35:32.884Z,100676.33
2019-05-21T09:41:40.475Z,100676.94
2019-05-21T09:47:46.380Z,100685.33
2019-05-21T09:53:52.180Z,100696.88
2019-05-21T10:00:06.551Z,100697.80
2019-05-21T10:06:12.288Z,100712.00
2019-05-21T10:12:18.398Z,100706.95
2019-05-21T10:18:24.272Z,100713.39
2019-05-21T10:24:30.604Z,100716.05
2019-05-21T10:30:37.231Z,100727.39
2019-05-21T10:36:43.142Z,100735.80
2019-05-21T10:42:48.878Z,100738.59
2019-05-21T10:48:54.670Z,100740.77
2019-05-21T10:55:00.594Z,100743.52
2019-05-21T11:01:25.721Z,100748.95
2019-05-21T11:07:31.816Z,100746.70
2019-05-21T11:13:37.934Z,100754.00
2019-05-21T11:19:43.916Z,100761.84
2019-05-21T11:25:50.137Z,100765.39
2019-05-21T11:31:57.648Z,100775.66
2019-05-21T11:38:07.007Z,100781.89
2019-05-21T11:44:13.129Z,100795.06
2019-05-21T11:50:19.832Z,100794.05
2019-05-21T11:56:25.997Z,100804.14
2019-05-21T12:02:31.936Z,100810.42
2019-05-21T12:08:37.830Z,100816.19
2019-05-21T12:14:43.881Z,100824.59
2019-05-21T12:20:49.692Z,100843.89
2019-05-21T12:26:55.486Z,100832.45
2019-05-21T12:33:01.497Z,100835.38
2019-05-21T12:39:14.271Z,100850.06
2019-05-21T12:45:17.639Z,100850.94
2019-05-21T12:51:24.613Z,100856.20
2019-05-21T12:57:30.405Z,100857.00
2019-05-21T13:03:36.947Z,100860.48
2019-05-21T13:09:42.839Z,100869.15
2019-05-21T13:15:49.016Z,100869.37
2019-05-21T13:21:54.979Z,100885.17
2019-05-21T13:28:00.976Z,100883.88
2019-05-21T13:34:07.230Z,100891.64
2019-05-21T13:40:13.580Z,100898.58
2019-05-21T13:46:19.573Z,100905.70
2019-05-21T13:52:25.787Z,100907.50
2019-05-21T13:58:32.895Z,100917.38
2019-05-21T14:04:39.046Z,100917.30
2019-05-21T14:10:44.903Z,100921.50
2019-05-21T14:16:50.784Z,100926.19
2019-05-21T14:22:56.623Z,100938.72
2019-05-21T14:29:02.444Z,100938.66
2019-05-21T14:35:08.671Z,100944.27
2019-05-21T14:41:14.587Z,100940.28
2019-05-21T14:47:20.567Z,100954.88
2019-05-21T14:53:27.485Z,100950.55
2019-05-21T14:59:33.520Z,100948.72
2019-05-21T15:05:39.654Z,100954.48
2019-05-21T15:11:45.477Z,100955.01
2019-05-21T15:17:51.333Z,100957.19
2019-05-21T15:23:57.588Z,100957.06
2019-05-21T15:30:03.922Z,100965.87
2019-05-21T15:36:09.945Z,100962.36
2019-05-21T15:42:15.832Z,100966.36
2019-05-21T15:48:26.039Z,100968.14
2019-05-21T15:54:30.270Z,100970.78
2019-05-21T16:00:36.150Z,100979.34
2019-05-21T16:06:42.026Z,100984.71
2019-05-21T16:12:47.949Z,100988.22
2019-05-21T16:18:53.992Z,100986.98
2019-05-21T16:24:59.851Z,100996.81
2019-05-21T16:31:05.675Z,101001.09
2019-05-21T16:37:12.063Z,100998.04
2019-05-21T16:43:18.415Z,101000.38
2019-05-21T16:49:25.624Z,101002.65
2019-05-21T16:55:32.357Z,101005.36
2019-05-21T17:01:38.139Z,101008.34
2019-05-21T17:07:43.973Z,101005.61
2019-05-21T17:13:50.098Z,101007.55
2019-05-21T17:19:56.035Z,101011.40
2019-05-21T17:26:02.356Z,101011.98
2019-05-21T17:32:08.663Z,101011.92
2019-05-21T17:38:16.428Z,101021.20
2019-05-21T17:44:24.888Z,101017.75
2019-05-21T17:50:29.833Z,101021.25
2019-05-21T17:56:37.694Z,101024.38
2019-05-21T18:09:02.346Z,101018.30
2019-05-21T18:15:12.434Z,101024.36
2019-05-21T18:21:18.682Z,101035.77
2019-05-21T18:27:25.032Z,101042.73
2019-05-21T18:33:30.783Z,101047.56
2019-05-21T18:39:37.686Z,101048.09
2019-05-21T18:45:44.068Z,101050.75
2019-05-21T18:51:50.123Z,101055.77
2019-05-21T18:57:56.319Z,101061.08
2019-05-21T19:04:02.136Z,101066.70
2019-05-21T19:10:08.674Z,101078.02
2019-05-21T19:16:14.497Z,101093.06
2019-05-21T19:22:20.582Z,101090.52
2019-05-21T19:28:26.396Z,101095.81
2019-05-21T19:34:32.242Z,101102.48
2019-05-21T19:40:38.269Z,101116.09
2019-05-21T19:46:44.219Z,101118.73
2019-05-21T19:52:50.016Z,101122.25
2019-05-21T19:58:55.953Z,101132.04
2019-05-21T20:05:02.362Z,101143.09
2019-05-21T20:11:09.366Z,101154.08
2019-05-21T20:17:17.176Z,101154.55
2019-05-21T20:23:24.862Z,101163.97
2019-05-21T20:29:31.260Z,101167.94
2019-05-21T20:35:38.309Z,101164.93
2019-05-21T20:41:44.828Z,101167.66
2019-05-21T20:47:52.350Z,101172.14
2019-05-21T20:53:58.952Z,101172.13
2019-05-21T21:00:05.718Z,101166.47
2019-05-21T21:06:12.605Z,101172.59
2019-05-21T21:12:19.409Z,101168.71
2019-05-21T21:18:25.897Z,101177.10
2019-05-21T21:24:31.836Z,101171.39
2019-05-21T21:30:37.797Z,101167.43
2019-05-21T21:36:44.122Z,101165.27
2019-05-21T21:42:50.306Z,101181.59
2019-05-21T21:48:56.751Z,101179.79
2019-05-21T21:55:02.612Z,101179.83
2019-05-21T22:01:46.577Z,101184.70
2019-05-21T22:07:54.053Z,101186.86
2019-05-21T22:14:00.813Z,101189.61
2019-05-21T22:20:09.767Z,101193.54
2019-05-21T22:26:15.762Z,101187.77
2019-05-21T22:32:21.901Z,101198.47
2019-05-21T22:38:28.441Z,101190.99
2019-05-21T22:44:34.755Z,101197.60
2019-05-21T22:50:40.686Z,101195.83
2019-05-21T22:56:46.480Z,101186.54
2019-05-21T23:02:52.862Z,101184.83
2019-05-21T23:08:58.809Z,101189.73
2019-05-21T23:15:04.929Z,101188.38
2019-05-21T23:21:11.250Z,101190.18
2019-05-21T23:27:17.722Z,101183.59
2019-05-21T23:33:23.987Z,101182.27
2019-05-21T23:39:31.445Z,101191.53
2019-05-21T23:45:37.285Z,101191.05
2019-05-21T23:51:43.565Z,101189.33
2019-05-21T23:57:49.596Z,101190.66
